Time;durP1;ratioP1;P1;durP2;ratioP2;P2;SDS_P1;SDS_P2;PMS_P1;PMS_P2;Temp;Humidity;BMP_temperature;BMP_pressure;BME280_temperature;BME280_humidity;BME280_pressure;Samples;Min_cycle;Max_cycle;Signal;HPM_P1;HPM_P2
2021/05/18 00:01:05;;;;;;;11.93;10.60;;;;;;;;;;5065810;28;20465;-94
2021/05/18 00:03:32;;;;;;;11.53;10.43;;;;;;;;;;5068108;28;20448;-94
2021/05/18 00:05:58;;;;;;;13.60;12.30;;;;;;;;;;5063569;28;20464;-95
2021/05/18 00:08:26;;;;;;;13.23;11.83;;;;;;;;;;5068583;28;20497;-95
2021/05/18 00:13:39;;;;;;;12.67;11.40;;;;;;;;;;5074128;28;20501;-94
2021/05/18 00:16:06;;;;;;;11.90;10.13;;;;;;;;;;5068338;28;20479;-95
2021/05/18 00:18:32;;;;;;;11.40;10.40;;;;;;;;;;5068000;28;21003;-94
2021/05/18 00:20:58;;;;;;;11.73;9.77;;;;;;;;;;5074703;28;20453;-94
2021/05/18 00:23:24;;;;;;;12.30;10.17;;;;;;;;;;5070802;28;20465;-94
2021/05/18 00:25:50;;;;;;;13.00;11.77;;;;;;;;;;5069410;28;20472;-94
2021/05/18 00:28:17;;;;;;;9.83;8.83;;;;;;;;;;5064738;28;20454;-95
2021/05/18 00:30:44;;;;;;;12.50;8.90;;;;;;;;;;5069177;28;20471;-96
2021/05/18 00:33:13;;;;;;;11.57;10.37;;;;;;;;;;5071757;28;20489;-95
2021/05/18 00:35:39;;;;;;;10.70;9.70;;;;;;;;;;5075908;28;20477;-96
2021/05/18 00:38:05;;;;;;;15.10;12.60;;;;;;;;;;5071389;28;20449;-96
2021/05/18 00:40:31;;;;;;;16.97;11.97;;;;;;;;;;5076316;28;21252;-95
2021/05/18 00:42:57;;;;;;;12.87;11.67;;;;;;;;;;5067115;28;20450;-95
2021/05/18 00:45:27;;;;;;;16.43;14.73;;;;;;;;;;5071907;28;20980;-95
2021/05/18 00:47:54;;;;;;;11.57;10.57;;;;;;;;;;5072058;28;20461;-95
2021/05/18 00:50:21;;;;;;;15.27;13.77;;;;;;;;;;5074366;28;20489;-95
2021/05/18 00:52:47;;;;;;;22.87;20.20;;;;;;;;;;5062732;28;20481;-96
2021/05/18 00:55:21;;;;;;;19.00;17.20;;;;;;;;;;5067949;28;20451;-96
2021/05/18 01:00:36;;;;;;;23.07;17.37;;;;;;;;;;5057502;28;20463;-94
2021/05/18 01:03:03;;;;;;;17.87;15.57;;;;;;;;;;5069964;28;20477;-95
2021/05/18 01:08:13;;;;;;;15.53;13.87;;;;;;;;;;5064539;28;20459;-95
2021/05/18 01:10:39;;;;;;;18.07;15.70;;;;;;;;;;5073743;28;20453;-96
2021/05/18 01:13:06;;;;;;;17.43;15.43;;;;;;;;;;5071194;28;20456;-95
2021/05/18 01:15:32;;;;;;;19.30;17.37;;;;;;;;;;5066287;28;20461;-96
2021/05/18 01:17:58;;;;;;;35.77;18.27;;;;;;;;;;5073933;28;20445;-96
2021/05/18 01:20:25;;;;;;;21.20;16.17;;;;;;;;;;5064185;28;20469;-95
2021/05/18 01:22:51;;;;;;;16.73;15.00;;;;;;;;;;5067249;28;20452;-95
2021/05/18 01:25:18;;;;;;;20.47;18.27;;;;;;;;;;5067774;28;20462;-95
2021/05/18 01:27:45;;;;;;;16.07;14.47;;;;;;;;;;5070658;28;20457;-95
2021/05/18 01:30:11;;;;;;;18.20;16.30;;;;;;;;;;5063762;28;20576;-96
2021/05/18 01:32:39;;;;;;;62.10;19.23;;;;;;;;;;5065964;28;20453;-96
2021/05/18 01:35:06;;;;;;;317.93;25.93;;;;;;;;;;5065111;28;20466;-96
2021/05/18 01:37:31;;;;;;;313.07;26.80;;;;;;;;;;5067898;28;20527;-95
2021/05/18 01:40:08;;;;;;;33.50;16.87;;;;;;;;;;5064179;28;20882;-95
2021/05/18 01:42:47;;;;;;;79.00;21.07;;;;;;;;;;5073165;28;20448;-96
2021/05/18 01:45:14;;;;;;;73.23;20.40;;;;;;;;;;5064866;28;20454;-96
2021/05/18 01:47:45;;;;;;;24.50;20.00;;;;;;;;;;5065319;28;20443;-96
2021/05/18 01:50:11;;;;;;;23.50;20.40;;;;;;;;;;5060320;28;20490;-95
2021/05/18 01:52:37;;;;;;;24.47;22.00;;;;;;;;;;5072119;28;20454;-96
2021/05/18 01:55:05;;;;;;;23.33;18.77;;;;;;;;;;5065373;28;20479;-96
2021/05/18 01:57:31;;;;;;;23.57;20.00;;;;;;;;;;5071976;28;20453;-95
2021/05/18 01:59:57;;;;;;;20.67;18.57;;;;;;;;;;5066315;28;20485;-96
2021/05/18 02:02:23;;;;;;;21.10;18.50;;;;;;;;;;5068059;28;20481;-96
2021/05/18 02:04:51;;;;;;;24.70;19.00;;;;;;;;;;5068841;28;20460;-96
2021/05/18 02:07:18;;;;;;;24.57;21.97;;;;;;;;;;5062439;28;20464;-95
2021/05/18 02:09:44;;;;;;;23.60;21.17;;;;;;;;;;5068030;28;20492;-96
2021/05/18 02:12:11;;;;;;;21.17;18.87;;;;;;;;;;5062590;28;20525;-96
2021/05/18 02:14:39;;;;;;;23.27;20.20;;;;;;;;;;5065400;28;20465;-95
2021/05/18 02:17:12;;;;;;;35.33;31.73;;;;;;;;;;5065210;28;21246;-95
2021/05/18 02:25:26;;;;;;;25.20;22.60;;;;;;;;;;5018128;28;20490;-96
2021/05/18 02:27:54;;;;;;;25.60;23.00;;;;;;;;;;5053816;28;20462;-96
2021/05/18 02:30:20;;;;;;;28.00;24.70;;;;;;;;;;5068894;28;20484;-96
2021/05/18 02:32:47;;;;;;;27.17;23.03;;;;;;;;;;5062905;28;20454;-96
2021/05/18 02:35:14;;;;;;;26.40;22.50;;;;;;;;;;5074496;28;20461;-96
2021/05/18 02:37:41;;;;;;;23.60;21.07;;;;;;;;;;5068167;28;20458;-96
2021/05/18 02:40:08;;;;;;;26.73;23.10;;;;;;;;;;5070465;28;20450;-96
2021/05/18 02:42:34;;;;;;;23.40;20.90;;;;;;;;;;5065528;28;20461;-96
2021/05/18 02:45:05;;;;;;;26.17;22.53;;;;;;;;;;5074778;28;20449;-96
2021/05/18 02:50:15;;;;;;;22.50;20.07;;;;;;;;;;5067781;28;21000;-96
2021/05/18 02:52:41;;;;;;;20.80;18.60;;;;;;;;;;5062793;28;20449;-96
2021/05/18 02:55:09;;;;;;;23.73;19.87;;;;;;;;;;5075225;28;20524;-96
2021/05/18 02:57:38;;;;;;;25.10;18.43;;;;;;;;;;5066261;28;20462;-96
2021/05/18 03:00:06;;;;;;;24.30;18.07;;;;;;;;;;5065749;28;20547;-95
2021/05/18 03:02:33;;;;;;;20.93;16.33;;;;;;;;;;5062586;28;20468;-96
2021/05/18 03:04:59;;;;;;;19.17;16.67;;;;;;;;;;5073000;28;20477;-96
2021/05/18 03:07:25;;;;;;;19.53;16.47;;;;;;;;;;5075264;28;20441;-96
2021/05/18 03:09:51;;;;;;;22.70;15.87;;;;;;;;;;5061589;28;21111;-96
2021/05/18 03:12:17;;;;;;;20.10;15.83;;;;;;;;;;5071074;28;20457;-96
2021/05/18 03:14:43;;;;;;;24.90;16.00;;;;;;;;;;5060300;28;20484;-95
2021/05/18 03:17:10;;;;;;;19.10;17.10;;;;;;;;;;5065129;28;20453;-96
2021/05/18 03:19:36;;;;;;;23.50;17.80;;;;;;;;;;5069585;28;20456;-95
2021/05/18 03:22:02;;;;;;;20.90;18.70;;;;;;;;;;5072307;28;20449;-96
2021/05/18 03:24:28;;;;;;;20.50;18.30;;;;;;;;;;5070363;28;20460;-96
2021/05/18 03:26:54;;;;;;;23.70;17.60;;;;;;;;;;5075962;28;20450;-95
2021/05/18 03:29:24;;;;;;;20.17;17.90;;;;;;;;;;5073245;28;20497;-96
2021/05/18 03:34:37;;;;;;;24.20;21.07;;;;;;;;;;5069193;28;20536;-96
2021/05/18 03:37:08;;;;;;;20.47;18.20;;;;;;;;;;5102850;22;20493;-96
2021/05/18 03:39:35;;;;;;;26.40;19.60;;;;;;;;;;5050156;28;20455;-96
2021/05/18 03:42:05;;;;;;;31.80;24.00;;;;;;;;;;5053350;28;20461;-96
2021/05/18 03:52:58;;;;;;;13.63;12.27;;;;;;;;;;5049539;28;20858;-92
2021/05/18 04:03:42;;;;;;;13.13;11.83;;;;;;;;;;5056558;28;20480;-95
2021/05/18 04:11:52;;;;;;;13.23;10.53;;;;;;;;;;5047728;28;21024;-94
2021/05/18 04:17:02;;;;;;;14.90;10.90;;;;;;;;;;5051365;28;20468;-95
2021/05/18 04:19:33;;;;;;;15.10;11.50;;;;;;;;;;5049565;28;20863;-94
2021/05/18 04:22:18;;;;;;;12.60;10.50;;;;;;;;;;5046286;28;21073;-93
2021/05/18 04:25:03;;;;;;;11.67;10.10;;;;;;;;;;5052916;28;20503;-94
2021/05/18 04:38:55;;;;;;;11.23;10.10;;;;;;;;;;5055420;28;20457;-93
2021/05/18 04:41:50;;;;;;;12.73;8.97;;;;;;;;;;5050805;28;20463;-94
2021/05/18 04:52:27;;;;;;;13.50;9.20;;;;;;;;;;5047749;28;20473;-93
2021/05/18 05:00:24;;;;;;;11.80;9.63;;;;;;;;;;5053638;28;20433;-93
2021/05/18 05:08:18;;;;;;;8.00;6.27;;;;;;;;;;5048255;28;20522;-93
2021/05/18 05:16:13;;;;;;;8.67;7.53;;;;;;;;;;5049683;28;21016;-93
2021/05/18 05:18:39;;;;;;;7.00;6.30;;;;;;;;;;5042898;28;20454;-94
2021/05/18 05:21:05;;;;;;;7.13;6.30;;;;;;;;;;5056909;28;20452;-94
2021/05/18 05:23:31;;;;;;;7.37;6.13;;;;;;;;;;5042895;28;20478;-95
2021/05/18 05:25:58;;;;;;;6.77;6.07;;;;;;;;;;5040598;28;20459;-95
2021/05/18 05:28:24;;;;;;;12.50;7.83;;;;;;;;;;5038591;28;20462;-95
2021/05/18 05:30:50;;;;;;;9.00;7.63;;;;;;;;;;5047743;28;20900;-95
2021/05/18 05:33:16;;;;;;;7.33;6.50;;;;;;;;;;5056017;28;20504;-95
2021/05/18 05:35:42;;;;;;;7.70;7.00;;;;;;;;;;5056015;28;20469;-96
2021/05/18 05:38:09;;;;;;;6.60;5.90;;;;;;;;;;5059859;28;21028;-96
2021/05/18 05:40:35;;;;;;;7.27;6.57;;;;;;;;;;5052381;28;20458;-96
2021/05/18 05:43:35;;;;;;;9.50;6.23;;;;;;;;;;5060590;28;20449;-96
2021/05/18 05:48:54;;;;;;;9.47;6.47;;;;;;;;;;5214166;22;20493;-96
2021/05/18 06:47:50;;;;;;;7.40;6.70;;;;;;;;;;5040134;28;20400;-96
2021/05/18 06:55:40;;;;;;;6.03;5.53;;;;;;;;;;5387404;22;20556;-96
2021/05/18 07:06:51;;;;;;;5.00;4.00;;;;;;;;;;1996642;23;20497;-96
2021/05/18 07:09:31;;;;;;;7.30;4.27;;;;;;;;;;5056979;28;20474;-96
2021/05/18 07:12:15;;;;;;;5.10;4.50;;;;;;;;;;5131261;22;20486;-96
2021/05/18 07:14:48;;;;;;;4.60;4.13;;;;;;;;;;5066322;23;20519;-94
2021/05/18 07:17:14;;;;;;;10.73;4.77;;;;;;;;;;5046059;28;21257;-96
2021/05/18 07:19:45;;;;;;;5.40;4.80;;;;;;;;;;5174859;23;20679;-96
2021/05/18 07:22:13;;;;;;;5.63;5.07;;;;;;;;;;5054841;28;20539;-95
2021/05/18 07:27:57;;;;;;;5.53;4.50;;;;;;;;;;4993472;28;20480;-96
2021/05/18 07:30:28;;;;;;;6.37;5.77;;;;;;;;;;5015867;28;20539;-96
2021/05/18 07:32:56;;;;;;;8.13;4.70;;;;;;;;;;5011012;28;20441;-96
2021/05/18 07:35:27;;;;;;;5.60;4.40;;;;;;;;;;5082502;23;20520;-96
2021/05/18 07:40:40;;;;;;;4.83;4.50;;;;;;;;;;5079383;23;20496;-96
2021/05/18 07:43:17;;;;;;;7.43;4.30;;;;;;;;;;5115431;23;20498;-96
2021/05/18 07:46:15;;;;;;;4.17;3.77;;;;;;;;;;5069747;28;20524;-95
2021/05/18 07:49:07;;;;;;;4.57;4.20;;;;;;;;;;5062533;28;20434;-96
2021/05/18 07:51:45;;;;;;;5.07;4.67;;;;;;;;;;5137517;22;20494;-96
2021/05/18 07:59:50;;;;;;;6.20;4.97;;;;;;;;;;5068878;28;20524;-94
2021/05/18 08:05:24;;;;;;;5.00;4.50;;;;;;;;;;5063979;28;20437;-96
2021/05/18 08:11:06;;;;;;;6.60;5.20;;;;;;;;;;5222527;22;20447;-96
2021/05/18 08:19:33;;;;;;;4.50;4.17;;;;;;;;;;5097484;23;20524;-96
2021/05/18 10:37:27;;;;;;;3.83;2.60;;;;;;;;;;5034548;28;20454;-95
2021/05/18 10:40:24;;;;;;;2.37;2.17;;;;;;;;;;5046555;28;20470;-96
2021/05/18 10:46:10;;;;;;;4.90;1.90;;;;;;;;;;4959683;28;20519;-96
2021/05/18 10:48:55;;;;;;;1.60;1.50;;;;;;;;;;5034895;28;20454;-96
2021/05/18 10:54:28;;;;;;;4.03;1.90;;;;;;;;;;5040215;28;20459;-96
2021/05/18 10:59:41;;;;;;;3.10;2.00;;;;;;;;;;5064751;23;20485;-93
2021/05/18 11:02:09;;;;;;;2.93;1.67;;;;;;;;;;5062776;28;20433;-96
2021/05/18 11:04:38;;;;;;;1.43;1.33;;;;;;;;;;5065379;28;20512;-96
2021/05/18 11:07:04;;;;;;;3.50;1.83;;;;;;;;;;5069416;28;20473;-96
2021/05/18 11:09:38;;;;;;;1.50;1.40;;;;;;;;;;5062852;28;20478;-96
2021/05/18 11:12:05;;;;;;;1.50;1.40;;;;;;;;;;5072078;23;20593;-95
2021/05/18 11:14:32;;;;;;;1.67;1.50;;;;;;;;;;5032252;28;20570;-96
2021/05/18 11:17:06;;;;;;;1.80;1.70;;;;;;;;;;5036051;28;20474;-96
2021/05/18 11:19:56;;;;;;;2.60;1.50;;;;;;;;;;5032849;28;20535;-96
2021/05/18 11:25:35;;;;;;;1.60;1.50;;;;;;;;;;5075943;28;20448;-95
2021/05/18 11:28:10;;;;;;;2.03;1.30;;;;;;;;;;5083618;28;20445;-96
2021/05/18 11:30:37;;;;;;;1.40;1.30;;;;;;;;;;5118809;22;20485;-96
2021/05/18 11:33:03;;;;;;;1.60;1.40;;;;;;;;;;5045902;28;20451;-96
2021/05/18 11:35:44;;;;;;;1.57;1.47;;;;;;;;;;5056330;28;20438;-96
2021/05/18 11:38:14;;;;;;;1.40;1.10;;;;;;;;;;5037437;28;20478;-96
2021/05/18 11:40:51;;;;;;;1.57;1.47;;;;;;;;;;5046804;28;20446;-96
2021/05/18 11:43:40;;;;;;;1.50;1.13;;;;;;;;;;5055640;28;20511;-96
2021/05/18 11:49:10;;;;;;;1.40;1.30;;;;;;;;;;5135421;23;20468;-96
2021/05/18 11:51:42;;;;;;;4.83;1.40;;;;;;;;;;5066722;28;20426;-96
2021/05/18 11:54:08;;;;;;;2.40;1.30;;;;;;;;;;5042844;28;20456;-94
2021/05/18 11:56:40;;;;;;;1.47;1.20;;;;;;;;;;5055960;28;20523;-96
2021/05/18 12:07:03;;;;;;;1.30;1.20;;;;;;;;;;5038239;28;20464;-96
2021/05/18 12:09:31;;;;;;;1.30;1.20;;;;;;;;;;5037234;28;20478;-96
2021/05/18 12:12:18;;;;;;;2.27;1.20;;;;;;;;;;5031688;28;20515;-96
2021/05/18 12:14:54;;;;;;;1.53;1.20;;;;;;;;;;5062246;23;20463;-96
2021/05/18 12:17:39;;;;;;;1.37;1.10;;;;;;;;;;5170783;22;20485;-96
2021/05/18 12:20:16;;;;;;;1.30;1.17;;;;;;;;;;5043817;28;20452;-96
2021/05/18 12:22:47;;;;;;;1.73;1.20;;;;;;;;;;5052991;28;20865;-96
2021/05/18 12:25:33;;;;;;;1.83;1.10;;;;;;;;;;5040566;28;20474;-96
2021/05/18 12:28:15;;;;;;;9.07;1.53;;;;;;;;;;5039570;28;21022;-95
2021/05/18 12:30:44;;;;;;;1.67;1.10;;;;;;;;;;5036686;28;20520;-96
2021/05/18 12:33:10;;;;;;;1.20;1.00;;;;;;;;;;5046818;28;20458;-91
2021/05/18 12:35:39;;;;;;;3.33;1.00;;;;;;;;;;5043373;28;20496;-96
2021/05/18 12:38:27;;;;;;;1.10;1.00;;;;;;;;;;5037237;28;20462;-96
2021/05/18 12:41:10;;;;;;;1.27;1.10;;;;;;;;;;5036596;28;20523;-95
2021/05/18 12:44:00;;;;;;;2.40;1.20;;;;;;;;;;5042814;28;20469;-96
2021/05/18 12:46:56;;;;;;;2.90;1.10;;;;;;;;;;5046190;28;20454;-96
2021/05/18 13:00:35;;;;;;;1.30;1.00;;;;;;;;;;5060423;28;20473;-96
2021/05/18 13:03:25;;;;;;;1.37;1.17;;;;;;;;;;5061413;28;20476;-96
2021/05/18 13:05:53;;;;;;;5.03;1.20;;;;;;;;;;5064893;28;20434;-96
2021/05/18 13:08:32;;;;;;;2.60;0.90;;;;;;;;;;5065712;28;20454;-96
2021/05/18 13:11:07;;;;;;;1.90;1.10;;;;;;;;;;5065575;28;20561;-96
2021/05/18 13:13:44;;;;;;;1.23;1.13;;;;;;;;;;5051671;28;20474;-94
2021/05/18 13:16:12;;;;;;;1.13;0.90;;;;;;;;;;5041983;28;20520;-95
2021/05/18 13:18:55;;;;;;;1.10;1.10;;;;;;;;;;5044861;28;20511;-96
2021/05/18 13:21:45;;;;;;;1.20;1.10;;;;;;;;;;5050421;28;20466;-96
2021/05/18 13:24:27;;;;;;;1.57;1.00;;;;;;;;;;5038977;28;20419;-96
2021/05/18 13:26:53;;;;;;;1.10;0.90;;;;;;;;;;5061420;23;20956;-96
2021/05/18 13:29:23;;;;;;;1.93;1.03;;;;;;;;;;5062237;28;20486;-96
2021/05/18 13:31:51;;;;;;;2.37;0.90;;;;;;;;;;5063339;28;20484;-96
2021/05/18 13:37:01;;;;;;;1.93;1.30;;;;;;;;;;5172685;22;20486;-96
2021/05/18 13:39:31;;;;;;;2.43;1.30;;;;;;;;;;5087590;28;20422;-96
2021/05/18 13:42:05;;;;;;;3.20;1.30;;;;;;;;;;5091059;28;20457;-96
2021/05/18 13:44:33;;;;;;;1.43;1.17;;;;;;;;;;5209755;22;20510;-96
2021/05/18 13:47:21;;;;;;;1.30;1.20;;;;;;;;;;5092457;23;20549;-96
2021/05/18 13:49:53;;;;;;;2.17;1.47;;;;;;;;;;5061774;28;20541;-96
2021/05/18 13:52:24;;;;;;;1.40;1.23;;;;;;;;;;5079079;23;20481;-96
2021/05/18 13:54:50;;;;;;;1.47;1.23;;;;;;;;;;5060559;23;20466;-95
2021/05/18 13:57:19;;;;;;;2.80;1.30;;;;;;;;;;5058137;28;20458;-96
2021/05/18 14:00:13;;;;;;;1.27;1.10;;;;;;;;;;5062781;28;20542;-96
2021/05/18 14:03:04;;;;;;;0.90;0.90;;;;;;;;;;5078422;23;20469;-96
2021/05/18 14:08:27;;;;;;;3.63;1.37;;;;;;;;;;5280103;22;20473;-96
2021/05/18 14:10:55;;;;;;;1.37;1.27;;;;;;;;;;5078635;28;20496;-96
2021/05/18 14:16:04;;;;;;;1.37;1.10;;;;;;;;;;5051860;28;20467;-96
2021/05/18 14:23:56;;;;;;;1.77;1.20;;;;;;;;;;5071985;28;20472;-96
2021/05/18 14:26:43;;;;;;;1.73;1.20;;;;;;;;;;5110388;22;20477;-96
2021/05/18 14:29:09;;;;;;;1.33;0.90;;;;;;;;;;5090822;28;20459;-96
2021/05/18 14:43:06;;;;;;;1.00;1.00;;;;;;;;;;5092359;22;20781;-96
2021/05/18 14:45:36;;;;;;;6.30;1.20;;;;;;;;;;5086952;28;20513;-96
2021/05/18 14:48:20;;;;;;;1.60;1.50;;;;;;;;;;5071349;28;20457;-96
2021/05/18 14:56:28;;;;;;;4.43;1.30;;;;;;;;;;5072691;28;20473;-96
2021/05/18 15:01:37;;;;;;;2.40;1.00;;;;;;;;;;5072097;28;20947;-96
2021/05/18 15:04:19;;;;;;;2.27;1.47;;;;;;;;;;5077393;22;20467;-96
2021/05/18 15:06:47;;;;;;;1.53;0.97;;;;;;;;;;5116928;23;20490;-95
2021/05/18 15:14:35;;;;;;;2.10;1.30;;;;;;;;;;5043208;26;20318;-91
2021/05/18 15:17:07;;;;;;;3.73;1.10;;;;;;;;;;5073675;28;20445;-96
2021/05/18 15:22:21;;;;;;;1.17;1.03;;;;;;;;;;5062504;28;20502;-96
2021/05/18 15:27:28;;;;;;;1.33;1.20;;;;;;;;;;5170100;22;20464;-96
2021/05/18 15:30:19;;;;;;;1.87;1.10;;;;;;;;;;5084762;23;20485;-96
2021/05/18 15:32:53;;;;;;;1.90;1.07;;;;;;;;;;5214295;23;20500;-96
2021/05/18 15:35:20;;;;;;;1.20;1.10;;;;;;;;;;5084734;28;20420;-95
2021/05/18 15:37:47;;;;;;;1.97;1.20;;;;;;;;;;5083528;28;20452;-96
2021/05/18 15:40:15;;;;;;;1.63;1.53;;;;;;;;;;5102120;28;20507;-96
2021/05/18 15:43:01;;;;;;;2.20;1.20;;;;;;;;;;5080260;28;20445;-96
2021/05/18 15:45:32;;;;;;;2.80;1.23;;;;;;;;;;5086800;28;20446;-96
2021/05/18 15:48:19;;;;;;;2.00;1.20;;;;;;;;;;5086310;28;20480;-96
2021/05/18 15:56:28;;;;;;;1.33;1.23;;;;;;;;;;5041963;28;20454;-96
2021/05/18 15:59:01;;;;;;;1.73;1.20;;;;;;;;;;5038265;28;20463;-96
2021/05/18 16:06:58;;;;;;;1.00;1.00;;;;;;;;;;5881616;22;20571;-96
2021/05/18 16:10:02;;;;;;;0.90;0.90;;;;;;;;;;5078153;28;20441;-96
2021/05/18 16:21:23;;;;;;;1.57;1.00;;;;;;;;;;3057447;22;20493;-97
2021/05/18 16:26:23;;;;;;;2.23;1.17;;;;;;;;;;5053440;28;20463;-96
2021/05/18 16:37:08;;;;;;;2.37;1.30;;;;;;;;;;5079080;22;20501;-96
2021/05/18 16:54:11;;;;;;;1.77;1.10;;;;;;;;;;5030613;28;20595;-96
2021/05/18 16:57:03;;;;;;;1.33;1.00;;;;;;;;;;5146567;22;20477;-96
2021/05/18 16:59:47;;;;;;;2.17;1.20;;;;;;;;;;5035451;28;20473;-96
2021/05/18 17:02:43;;;;;;;3.50;1.23;;;;;;;;;;5094769;22;20474;-96
2021/05/18 17:05:49;;;;;;;1.83;1.00;;;;;;;;;;5066276;28;20449;-96
2021/05/18 17:34:50;;;;;;;1.20;1.10;;;;;;;;;;5848300;23;20488;-96
2021/05/18 17:37:46;;;;;;;3.53;1.50;;;;;;;;;;5047960;28;20429;-96
2021/05/18 19:01:51;;;;;;;2.03;1.58;;;;;;;;;;5141195;22;5018511;-96
2021/05/18 19:04:21;;;;;;;1.70;1.60;;;;;;;;;;5086065;22;20326;-96
2021/05/18 19:06:55;;;;;;;6.70;1.70;;;;;;;;;;5087264;28;20481;-96
2021/05/18 19:32:37;;;;;;;1.60;1.50;;;;;;;;;;5221055;22;20482;-96
2021/05/18 19:35:05;;;;;;;4.43;1.50;;;;;;;;;;5060987;28;20494;-96
2021/05/18 19:37:37;;;;;;;3.53;1.50;;;;;;;;;;5057141;28;20451;-96
2021/05/18 19:43:24;;;;;;;2.17;1.40;;;;;;;;;;5062594;28;20473;-96
2021/05/18 19:48:32;;;;;;;5.27;2.10;;;;;;;;;;5073555;28;20489;-96
2021/05/18 19:50:58;;;;;;;4.47;2.60;;;;;;;;;;5048854;28;20521;-96
2021/05/18 20:15:02;;;;;;;3.53;2.00;;;;;;;;;;5055804;28;20437;-96
2021/05/18 20:20:14;;;;;;;1.53;1.43;;;;;;;;;;5089553;28;20452;-96
2021/05/18 20:22:41;;;;;;;2.00;1.40;;;;;;;;;;5091762;28;20481;-96
2021/05/18 20:25:07;;;;;;;2.20;1.50;;;;;;;;;;5086871;28;20883;-96
2021/05/18 20:27:33;;;;;;;2.77;1.50;;;;;;;;;;5084481;28;20911;-96
2021/05/18 20:29:59;;;;;;;6.40;1.60;;;;;;;;;;5081719;28;20483;-96
2021/05/18 20:32:27;;;;;;;2.70;1.50;;;;;;;;;;5083491;28;20460;-96
2021/05/18 20:35:03;;;;;;;2.60;1.63;;;;;;;;;;5063555;28;20574;-96
2021/05/18 20:40:15;;;;;;;2.63;1.50;;;;;;;;;;5082346;28;20441;-96
2021/05/18 20:42:41;;;;;;;2.97;1.70;;;;;;;;;;5084548;28;20481;-96
2021/05/18 20:45:08;;;;;;;2.23;2.03;;;;;;;;;;5082245;28;20464;-96
2021/05/18 20:47:34;;;;;;;2.97;1.80;;;;;;;;;;5083291;28;20458;-95
2021/05/18 20:50:02;;;;;;;2.83;1.80;;;;;;;;;;5078129;28;20782;-96
2021/05/18 20:52:28;;;;;;;3.93;2.13;;;;;;;;;;5078610;28;20452;-96
2021/05/18 20:54:55;;;;;;;2.63;2.10;;;;;;;;;;5076042;28;20495;-96
2021/05/18 20:57:21;;;;;;;3.13;2.10;;;;;;;;;;5079148;28;20953;-95
2021/05/18 20:59:47;;;;;;;3.03;2.20;;;;;;;;;;5076041;28;20459;-96
2021/05/18 21:02:13;;;;;;;3.20;1.90;;;;;;;;;;5077264;28;20449;-95
2021/05/18 21:04:39;;;;;;;3.07;1.80;;;;;;;;;;5076328;28;20490;-94
2021/05/18 21:07:19;;;;;;;2.50;1.80;;;;;;;;;;5082375;28;20445;-95
2021/05/18 21:09:54;;;;;;;2.00;1.90;;;;;;;;;;5078642;28;20494;-95
2021/05/18 21:12:36;;;;;;;3.00;1.87;;;;;;;;;;5077113;28;20488;-96
2021/05/18 21:17:46;;;;;;;3.20;1.97;;;;;;;;;;5082730;28;21873;-96
2021/05/18 21:20:12;;;;;;;1.80;1.70;;;;;;;;;;5073851;28;20492;-96
2021/05/18 21:22:38;;;;;;;4.40;1.87;;;;;;;;;;5077950;28;20435;-96
2021/05/18 21:25:05;;;;;;;5.77;2.00;;;;;;;;;;5075805;28;20455;-95
2021/05/18 21:27:32;;;;;;;1.80;1.70;;;;;;;;;;5078013;28;20449;-96
2021/05/18 21:29:58;;;;;;;2.73;2.00;;;;;;;;;;5077012;28;20448;-96
2021/05/18 21:32:24;;;;;;;1.60;1.47;;;;;;;;;;5072706;28;20470;-96
2021/05/18 21:34:50;;;;;;;3.43;1.63;;;;;;;;;;5076183;28;20455;-96
2021/05/18 21:37:16;;;;;;;2.20;1.80;;;;;;;;;;5077445;28;20459;-96
2021/05/18 21:39:45;;;;;;;2.33;1.67;;;;;;;;;;5080078;28;20450;-96
2021/05/18 21:42:12;;;;;;;3.20;1.50;;;;;;;;;;5077542;28;20456;-96
2021/05/18 21:44:39;;;;;;;1.77;1.67;;;;;;;;;;5081353;28;20448;-96
2021/05/18 21:47:06;;;;;;;1.73;1.63;;;;;;;;;;5080472;28;20451;-96
2021/05/18 21:49:32;;;;;;;2.47;1.90;;;;;;;;;;5082135;28;20458;-96
2021/05/18 21:51:59;;;;;;;2.50;1.60;;;;;;;;;;5079970;28;20536;-95
2021/05/18 21:54:25;;;;;;;1.83;1.70;;;;;;;;;;5083065;28;20454;-96
2021/05/18 21:56:57;;;;;;;1.80;1.70;;;;;;;;;;5080270;28;20477;-95
2021/05/18 21:59:23;;;;;;;2.60;1.57;;;;;;;;;;5083635;28;20447;-96
2021/05/18 22:01:50;;;;;;;2.07;1.80;;;;;;;;;;5081081;28;20476;-96
2021/05/18 22:04:16;;;;;;;2.57;1.80;;;;;;;;;;5082510;28;20526;-96
2021/05/18 22:06:44;;;;;;;1.93;1.70;;;;;;;;;;5082342;28;20454;-96
2021/05/18 22:09:16;;;;;;;2.13;1.97;;;;;;;;;;5083487;28;20466;-96
2021/05/18 22:11:47;;;;;;;2.70;1.77;;;;;;;;;;5083059;28;20493;-96
2021/05/18 22:14:18;;;;;;;1.90;1.53;;;;;;;;;;5080519;28;20453;-96
2021/05/18 22:22:39;;;;;;;5.00;1.90;;;;;;;;;;5083016;28;20458;-96
2021/05/18 22:27:46;;;;;;;2.17;2.00;;;;;;;;;;5074654;28;20452;-96
2021/05/18 22:30:13;;;;;;;2.57;2.37;;;;;;;;;;5082973;28;20485;-96
2021/05/18 22:32:39;;;;;;;2.37;2.17;;;;;;;;;;5079990;28;20457;-96
2021/05/18 22:35:08;;;;;;;2.40;2.13;;;;;;;;;;5080887;28;20521;-96
2021/05/18 22:37:34;;;;;;;11.13;2.60;;;;;;;;;;5081798;28;20457;-95
2021/05/18 22:40:00;;;;;;;3.40;2.27;;;;;;;;;;5077667;28;20464;-96
2021/05/18 22:42:26;;;;;;;2.83;2.37;;;;;;;;;;5081862;28;20486;-96
2021/05/18 22:44:52;;;;;;;2.90;2.53;;;;;;;;;;5079366;28;20520;-96
2021/05/18 22:47:18;;;;;;;2.33;2.17;;;;;;;;;;5081800;28;20445;-96
2021/05/18 22:49:44;;;;;;;2.90;2.30;;;;;;;;;;5079289;28;20516;-96
2021/05/18 22:52:11;;;;;;;2.30;2.20;;;;;;;;;;5081691;28;20521;-96
2021/05/18 22:54:37;;;;;;;3.33;3.00;;;;;;;;;;5079873;28;20458;-96
2021/05/18 22:57:04;;;;;;;3.80;2.50;;;;;;;;;;5081574;28;20482;-96
2021/05/18 22:59:30;;;;;;;2.50;2.30;;;;;;;;;;5080065;28;20460;-96
2021/05/18 23:01:56;;;;;;;3.37;2.40;;;;;;;;;;5082523;28;20458;-95
2021/05/18 23:04:22;;;;;;;2.30;1.97;;;;;;;;;;5077159;28;20481;-96
2021/05/18 23:06:48;;;;;;;2.10;1.90;;;;;;;;;;5080587;28;20441;-96
2021/05/18 23:09:15;;;;;;;2.50;2.30;;;;;;;;;;5079688;28;20449;-95
2021/05/18 23:11:41;;;;;;;2.30;2.10;;;;;;;;;;5082429;28;20504;-95
2021/05/18 23:14:10;;;;;;;3.23;2.17;;;;;;;;;;5082306;28;20457;-95
2021/05/18 23:16:37;;;;;;;4.40;2.33;;;;;;;;;;5079016;28;20457;-95
2021/05/18 23:19:04;;;;;;;8.07;2.13;;;;;;;;;;5082299;28;20458;-95
2021/05/18 23:21:30;;;;;;;4.47;2.23;;;;;;;;;;5079010;28;20463;-96
2021/05/18 23:23:56;;;;;;;2.20;2.00;;;;;;;;;;5080721;28;20960;-96
2021/05/18 23:26:23;;;;;;;2.30;2.10;;;;;;;;;;5077839;28;20457;-94
2021/05/18 23:28:49;;;;;;;5.23;2.30;;;;;;;;;;5080647;28;20445;-94
2021/05/18 23:31:15;;;;;;;5.00;2.27;;;;;;;;;;5078583;28;20489;-95
2021/05/18 23:33:41;;;;;;;3.03;1.83;;;;;;;;;;5080497;28;20849;-95
2021/05/18 23:36:07;;;;;;;7.23;3.13;;;;;;;;;;5078898;28;20450;-95
2021/05/18 23:38:33;;;;;;;2.10;1.90;;;;;;;;;;5084841;28;20453;-95
2021/05/18 23:40:59;;;;;;;2.37;2.17;;;;;;;;;;5082169;28;20469;-95
2021/05/18 23:43:26;;;;;;;2.80;2.17;;;;;;;;;;5086073;28;20461;-95
2021/05/18 23:45:52;;;;;;;7.63;2.40;;;;;;;;;;5082817;28;20461;-96
2021/05/18 23:48:18;;;;;;;2.33;2.13;;;;;;;;;;5085507;28;20464;-95
2021/05/18 23:50:44;;;;;;;2.10;1.90;;;;;;;;;;5084065;28;20493;-95
2021/05/18 23:53:10;;;;;;;2.87;2.03;;;;;;;;;;5084314;28;20478;-95
2021/05/18 23:55:36;;;;;;;2.40;2.13;;;;;;;;;;5086231;28;20452;-95
2021/05/18 23:58:02;;;;;;;2.80;2.00;;;;;;;;;;5082500;28;20518;-96
